sensor_id;sensor_type;location;lat;lon;timestamp;P1;durP1;ratioP1;P2;durP2;ratioP2
51594;SDS011;37677;53.254;6.594;2022-09-25T00:00:39;8.52;;;3.03;;
51594;SDS011;37677;53.254;6.594;2022-09-25T00:03:09;8.95;;;2.40;;
51594;SDS011;37677;53.254;6.594;2022-09-25T00:05:36;9.60;;;2.58;;
51594;SDS011;37677;53.254;6.594;2022-09-25T00:08:04;10.40;;;2.53;;
51594;SDS011;37677;53.254;6.594;2022-09-25T00:10:30;9.73;;;2.65;;
51594;SDS011;37677;53.254;6.594;2022-09-25T00:12:56;10.25;;;2.60;;
51594;SDS011;37677;53.254;6.594;2022-09-25T00:15:22;11.07;;;2.50;;
51594;SDS011;37677;53.254;6.594;2022-09-25T00:17:48;9.40;;;2.75;;
51594;SDS011;37677;53.254;6.594;2022-09-25T00:20:17;5.50;;;2.50;;
51594;SDS011;37677;53.254;6.594;2022-09-25T00:22:48;7.25;;;2.60;;
51594;SDS011;37677;53.254;6.594;2022-09-25T00:25:15;10.90;;;2.75;;
51594;SDS011;37677;53.254;6.594;2022-09-25T00:27:42;10.00;;;3.15;;
51594;SDS011;37677;53.254;6.594;2022-09-25T00:30:08;9.70;;;2.92;;
51594;SDS011;37677;53.254;6.594;2022-09-25T00:32:36;9.70;;;2.53;;
51594;SDS011;37677;53.254;6.594;2022-09-25T00:35:01;7.85;;;2.60;;
51594;SDS011;37677;53.254;6.594;2022-09-25T00:37:27;9.02;;;2.88;;
51594;SDS011;37677;53.254;6.594;2022-09-25T00:39:54;13.38;;;3.55;;
51594;SDS011;37677;53.254;6.594;2022-09-25T00:42:20;12.30;;;2.90;;
51594;SDS011;37677;53.254;6.594;2022-09-25T00:44:59;10.02;;;2.75;;
51594;SDS011;37677;53.254;6.594;2022-09-25T00:50:38;11.98;;;3.00;;
51594;SDS011;37677;53.254;6.594;2022-09-25T00:55:46;10.05;;;2.53;;
51594;SDS011;37677;53.254;6.594;2022-09-25T00:58:12;21.67;;;2.90;;
51594;SDS011;37677;53.254;6.594;2022-09-25T01:00:40;13.52;;;2.63;;
51594;SDS011;37677;53.254;6.594;2022-09-25T01:03:07;10.60;;;2.72;;
51594;SDS011;37677;53.254;6.594;2022-09-25T01:05:35;12.85;;;2.75;;
51594;SDS011;37677;53.254;6.594;2022-09-25T01:08:03;9.55;;;2.80;;
51594;SDS011;37677;53.254;6.594;2022-09-25T01:10:32;9.73;;;3.00;;
51594;SDS011;37677;53.254;6.594;2022-09-25T01:12:58;8.00;;;2.60;;
51594;SDS011;37677;53.254;6.594;2022-09-25T01:15:42;12.45;;;3.03;;
51594;SDS011;37677;53.254;6.594;2022-09-25T01:24:17;12.55;;;2.40;;
51594;SDS011;37677;53.254;6.594;2022-09-25T01:34:15;15.23;;;3.08;;
51594;SDS011;37677;53.254;6.594;2022-09-25T01:36:50;10.82;;;2.75;;
51594;SDS011;37677;53.254;6.594;2022-09-25T01:39:33;10.93;;;2.63;;
51594;SDS011;37677;53.254;6.594;2022-09-25T01:42:10;6.40;;;1.95;;
51594;SDS011;37677;53.254;6.594;2022-09-25T01:44:39;10.35;;;2.42;;
51594;SDS011;37677;53.254;6.594;2022-09-25T01:47:11;10.13;;;3.03;;
51594;SDS011;37677;53.254;6.594;2022-09-25T01:49:45;12.85;;;2.90;;
51594;SDS011;37677;53.254;6.594;2022-09-25T01:52:24;11.23;;;3.22;;
51594;SDS011;37677;53.254;6.594;2022-09-25T01:55:04;10.32;;;3.13;;
51594;SDS011;37677;53.254;6.594;2022-09-25T01:57:41;9.50;;;2.78;;
51594;SDS011;37677;53.254;6.594;2022-09-25T02:00:14;6.55;;;2.15;;
51594;SDS011;37677;53.254;6.594;2022-09-25T02:03:06;7.38;;;2.80;;
51594;SDS011;37677;53.254;6.594;2022-09-25T02:05:45;16.08;;;2.67;;
51594;SDS011;37677;53.254;6.594;2022-09-25T02:08:27;15.55;;;3.50;;
51594;SDS011;37677;53.254;6.594;2022-09-25T02:11:02;10.20;;;2.50;;
51594;SDS011;37677;53.254;6.594;2022-09-25T02:13:49;9.20;;;2.70;;
51594;SDS011;37677;53.254;6.594;2022-09-25T02:16:25;12.27;;;2.45;;
51594;SDS011;37677;53.254;6.594;2022-09-25T02:21:49;8.65;;;2.75;;
51594;SDS011;37677;53.254;6.594;2022-09-25T02:27:21;8.48;;;2.58;;
51594;SDS011;37677;53.254;6.594;2022-09-25T02:29:48;10.15;;;2.80;;
51594;SDS011;37677;53.254;6.594;2022-09-25T02:32:15;8.88;;;3.10;;
51594;SDS011;37677;53.254;6.594;2022-09-25T02:34:44;13.90;;;2.60;;
51594;SDS011;37677;53.254;6.594;2022-09-25T02:37:13;8.43;;;2.28;;
51594;SDS011;37677;53.254;6.594;2022-09-25T02:39:41;11.63;;;2.72;;
51594;SDS011;37677;53.254;6.594;2022-09-25T02:48:18;12.05;;;3.17;;
51594;SDS011;37677;53.254;6.594;2022-09-25T02:54:03;13.13;;;2.60;;
51594;SDS011;37677;53.254;6.594;2022-09-25T02:56:46;6.63;;;2.90;;
51594;SDS011;37677;53.254;6.594;2022-09-25T02:59:28;8.00;;;2.50;;
51594;SDS011;37677;53.254;6.594;2022-09-25T03:01:58;8.13;;;2.60;;
51594;SDS011;37677;53.254;6.594;2022-09-25T03:04:25;11.00;;;2.85;;
51594;SDS011;37677;53.254;6.594;2022-09-25T03:06:53;13.93;;;2.70;;
51594;SDS011;37677;53.254;6.594;2022-09-25T03:09:20;9.23;;;2.70;;
51594;SDS011;37677;53.254;6.594;2022-09-25T03:11:48;14.70;;;3.00;;
51594;SDS011;37677;53.254;6.594;2022-09-25T03:14:15;10.48;;;2.58;;
51594;SDS011;37677;53.254;6.594;2022-09-25T03:16:43;12.15;;;2.83;;
51594;SDS011;37677;53.254;6.594;2022-09-25T03:19:14;6.40;;;2.25;;
51594;SDS011;37677;53.254;6.594;2022-09-25T03:21:40;12.50;;;2.58;;
51594;SDS011;37677;53.254;6.594;2022-09-25T03:24:06;7.90;;;2.40;;
51594;SDS011;37677;53.254;6.594;2022-09-25T03:26:33;10.05;;;2.70;;
51594;SDS011;37677;53.254;6.594;2022-09-25T03:28:58;11.13;;;3.33;;
51594;SDS011;37677;53.254;6.594;2022-09-25T03:31:26;11.98;;;2.97;;
51594;SDS011;37677;53.254;6.594;2022-09-25T03:33:53;11.75;;;3.30;;
51594;SDS011;37677;53.254;6.594;2022-09-25T03:36:20;12.57;;;2.85;;
51594;SDS011;37677;53.254;6.594;2022-09-25T03:38:48;7.90;;;2.92;;
51594;SDS011;37677;53.254;6.594;2022-09-25T03:41:17;10.27;;;2.90;;
51594;SDS011;37677;53.254;6.594;2022-09-25T03:43:45;10.63;;;3.15;;
51594;SDS011;37677;53.254;6.594;2022-09-25T03:46:14;8.07;;;2.88;;
51594;SDS011;37677;53.254;6.594;2022-09-25T03:48:41;12.00;;;2.75;;
51594;SDS011;37677;53.254;6.594;2022-09-25T03:51:07;12.98;;;3.15;;
51594;SDS011;37677;53.254;6.594;2022-09-25T03:53:33;11.75;;;2.63;;
51594;SDS011;37677;53.254;6.594;2022-09-25T03:56:01;10.80;;;2.78;;
51594;SDS011;37677;53.254;6.594;2022-09-25T03:58:31;11.65;;;2.83;;
51594;SDS011;37677;53.254;6.594;2022-09-25T04:00:57;7.00;;;2.45;;
51594;SDS011;37677;53.254;6.594;2022-09-25T04:03:24;6.72;;;2.40;;
51594;SDS011;37677;53.254;6.594;2022-09-25T04:05:54;5.60;;;2.33;;
51594;SDS011;37677;53.254;6.594;2022-09-25T04:08:21;9.95;;;2.70;;
51594;SDS011;37677;53.254;6.594;2022-09-25T04:10:49;10.93;;;2.72;;
51594;SDS011;37677;53.254;6.594;2022-09-25T04:13:15;12.90;;;2.67;;
51594;SDS011;37677;53.254;6.594;2022-09-25T04:15:41;9.18;;;2.58;;
51594;SDS011;37677;53.254;6.594;2022-09-25T04:18:07;7.13;;;2.35;;
51594;SDS011;37677;53.254;6.594;2022-09-25T04:20:33;9.48;;;2.53;;
51594;SDS011;37677;53.254;6.594;2022-09-25T04:22:59;9.70;;;2.75;;
51594;SDS011;37677;53.254;6.594;2022-09-25T04:25:25;7.40;;;2.47;;
51594;SDS011;37677;53.254;6.594;2022-09-25T04:27:52;9.50;;;2.50;;
51594;SDS011;37677;53.254;6.594;2022-09-25T04:30:22;9.63;;;2.63;;
51594;SDS011;37677;53.254;6.594;2022-09-25T04:32:51;8.93;;;2.50;;
51594;SDS011;37677;53.254;6.594;2022-09-25T04:35:36;8.30;;;2.67;;
51594;SDS011;37677;53.254;6.594;2022-09-25T04:38:02;9.15;;;2.28;;
51594;SDS011;37677;53.254;6.594;2022-09-25T04:40:28;11.45;;;2.63;;
51594;SDS011;37677;53.254;6.594;2022-09-25T04:43:01;8.40;;;2.42;;
51594;SDS011;37677;53.254;6.594;2022-09-25T04:45:29;10.20;;;2.28;;
51594;SDS011;37677;53.254;6.594;2022-09-25T04:47:57;10.27;;;2.22;;
51594;SDS011;37677;53.254;6.594;2022-09-25T04:50:24;6.40;;;2.28;;
51594;SDS011;37677;53.254;6.594;2022-09-25T04:52:51;5.75;;;2.08;;
51594;SDS011;37677;53.254;6.594;2022-09-25T04:55:17;5.53;;;2.28;;
51594;SDS011;37677;53.254;6.594;2022-09-25T04:57:56;6.65;;;2.00;;
51594;SDS011;37677;53.254;6.594;2022-09-25T05:00:24;7.57;;;2.20;;
51594;SDS011;37677;53.254;6.594;2022-09-25T05:02:52;7.70;;;2.60;;
51594;SDS011;37677;53.254;6.594;2022-09-25T05:05:17;8.05;;;2.10;;
51594;SDS011;37677;53.254;6.594;2022-09-25T05:07:53;6.75;;;2.75;;
51594;SDS011;37677;53.254;6.594;2022-09-25T05:10:24;7.68;;;2.45;;
51594;SDS011;37677;53.254;6.594;2022-09-25T05:12:55;6.07;;;2.60;;
51594;SDS011;37677;53.254;6.594;2022-09-25T05:15:22;6.30;;;2.28;;
51594;SDS011;37677;53.254;6.594;2022-09-25T05:17:49;5.47;;;2.20;;
51594;SDS011;37677;53.254;6.594;2022-09-25T05:20:16;8.23;;;2.40;;
51594;SDS011;37677;53.254;6.594;2022-09-25T05:22:42;13.05;;;3.20;;
51594;SDS011;37677;53.254;6.594;2022-09-25T05:25:08;8.88;;;2.53;;
51594;SDS011;37677;53.254;6.594;2022-09-25T05:27:34;6.60;;;2.30;;
51594;SDS011;37677;53.254;6.594;2022-09-25T05:30:00;12.55;;;3.03;;
51594;SDS011;37677;53.254;6.594;2022-09-25T05:32:26;5.60;;;2.33;;
51594;SDS011;37677;53.254;6.594;2022-09-25T05:34:52;9.38;;;2.60;;
51594;SDS011;37677;53.254;6.594;2022-09-25T05:37:17;9.23;;;3.08;;
51594;SDS011;37677;53.254;6.594;2022-09-25T05:39:44;9.65;;;2.70;;
51594;SDS011;37677;53.254;6.594;2022-09-25T05:42:09;6.30;;;2.55;;
51594;SDS011;37677;53.254;6.594;2022-09-25T05:44:35;11.40;;;2.78;;
51594;SDS011;37677;53.254;6.594;2022-09-25T05:47:03;8.73;;;2.30;;
51594;SDS011;37677;53.254;6.594;2022-09-25T05:49:30;10.80;;;3.28;;
51594;SDS011;37677;53.254;6.594;2022-09-25T05:51:55;7.90;;;2.67;;
51594;SDS011;37677;53.254;6.594;2022-09-25T05:54:21;14.68;;;3.00;;
51594;SDS011;37677;53.254;6.594;2022-09-25T05:56:47;10.57;;;2.90;;
51594;SDS011;37677;53.254;6.594;2022-09-25T05:59:12;8.13;;;2.30;;
51594;SDS011;37677;53.254;6.594;2022-09-25T06:01:38;9.82;;;2.83;;
51594;SDS011;37677;53.254;6.594;2022-09-25T06:04:05;15.45;;;2.65;;
51594;SDS011;37677;53.254;6.594;2022-09-25T06:06:31;7.93;;;2.47;;
51594;SDS011;37677;53.254;6.594;2022-09-25T06:08:56;10.13;;;2.60;;
51594;SDS011;37677;53.254;6.594;2022-09-25T06:11:22;12.02;;;2.65;;
51594;SDS011;37677;53.254;6.594;2022-09-25T06:13:48;6.50;;;2.33;;
51594;SDS011;37677;53.254;6.594;2022-09-25T06:16:18;12.20;;;2.63;;
51594;SDS011;37677;53.254;6.594;2022-09-25T06:18:44;13.50;;;2.75;;
51594;SDS011;37677;53.254;6.594;2022-09-25T06:21:11;9.35;;;2.58;;
51594;SDS011;37677;53.254;6.594;2022-09-25T06:23:37;11.30;;;2.83;;
51594;SDS011;37677;53.254;6.594;2022-09-25T06:26:04;8.93;;;2.38;;
51594;SDS011;37677;53.254;6.594;2022-09-25T06:28:31;7.90;;;3.10;;
51594;SDS011;37677;53.254;6.594;2022-09-25T06:30:58;11.63;;;2.80;;
51594;SDS011;37677;53.254;6.594;2022-09-25T06:33:25;11.98;;;2.60;;
51594;SDS011;37677;53.254;6.594;2022-09-25T06:35:51;14.90;;;2.92;;
51594;SDS011;37677;53.254;6.594;2022-09-25T06:38:16;13.98;;;2.80;;
51594;SDS011;37677;53.254;6.594;2022-09-25T06:40:42;7.03;;;2.85;;
51594;SDS011;37677;53.254;6.594;2022-09-25T06:43:12;8.40;;;2.30;;
51594;SDS011;37677;53.254;6.594;2022-09-25T06:45:39;11.43;;;2.70;;
51594;SDS011;37677;53.254;6.594;2022-09-25T06:48:09;9.65;;;2.45;;
51594;SDS011;37677;53.254;6.594;2022-09-25T06:53:12;15.85;;;3.35;;
51594;SDS011;37677;53.254;6.594;2022-09-25T06:55:38;7.38;;;2.45;;
51594;SDS011;37677;53.254;6.594;2022-09-25T06:58:05;8.98;;;2.53;;
51594;SDS011;37677;53.254;6.594;2022-09-25T07:00:32;8.15;;;2.80;;
51594;SDS011;37677;53.254;6.594;2022-09-25T07:02:58;6.82;;;2.47;;
51594;SDS011;37677;53.254;6.594;2022-09-25T07:05:43;9.43;;;2.50;;
51594;SDS011;37677;53.254;6.594;2022-09-25T07:08:12;7.55;;;2.75;;
51594;SDS011;37677;53.254;6.594;2022-09-25T07:10:47;4.95;;;2.50;;
51594;SDS011;37677;53.254;6.594;2022-09-25T07:13:17;8.43;;;2.78;;
51594;SDS011;37677;53.254;6.594;2022-09-25T07:18:21;14.48;;;2.83;;
51594;SDS011;37677;53.254;6.594;2022-09-25T07:20:49;8.63;;;2.45;;
51594;SDS011;37677;53.254;6.594;2022-09-25T07:23:16;9.20;;;2.15;;
51594;SDS011;37677;53.254;6.594;2022-09-25T07:25:43;5.35;;;2.30;;
51594;SDS011;37677;53.254;6.594;2022-09-25T07:28:09;6.85;;;2.20;;
51594;SDS011;37677;53.254;6.594;2022-09-25T07:30:38;10.02;;;1.98;;
51594;SDS011;37677;53.254;6.594;2022-09-25T07:33:07;8.90;;;2.78;;
51594;SDS011;37677;53.254;6.594;2022-09-25T07:35:33;11.85;;;2.40;;
51594;SDS011;37677;53.254;6.594;2022-09-25T07:38:00;8.82;;;2.50;;
51594;SDS011;37677;53.254;6.594;2022-09-25T07:40:25;6.72;;;2.20;;
51594;SDS011;37677;53.254;6.594;2022-09-25T07:42:56;7.65;;;2.30;;
51594;SDS011;37677;53.254;6.594;2022-09-25T07:45:24;10.23;;;2.20;;
51594;SDS011;37677;53.254;6.594;2022-09-25T07:47:53;6.75;;;2.13;;
51594;SDS011;37677;53.254;6.594;2022-09-25T07:50:20;9.18;;;2.30;;
51594;SDS011;37677;53.254;6.594;2022-09-25T07:52:46;6.90;;;2.17;;
51594;SDS011;37677;53.254;6.594;2022-09-25T07:55:11;8.13;;;2.13;;
51594;SDS011;37677;53.254;6.594;2022-09-25T07:57:37;11.77;;;2.90;;
51594;SDS011;37677;53.254;6.594;2022-09-25T08:00:06;9.75;;;1.90;;
51594;SDS011;37677;53.254;6.594;2022-09-25T08:02:32;9.35;;;1.90;;
51594;SDS011;37677;53.254;6.594;2022-09-25T08:04:59;9.40;;;1.70;;
51594;SDS011;37677;53.254;6.594;2022-09-25T08:07:26;10.48;;;1.83;;
51594;SDS011;37677;53.254;6.594;2022-09-25T08:09:52;5.85;;;1.88;;
51594;SDS011;37677;53.254;6.594;2022-09-25T08:12:18;13.25;;;2.30;;
51594;SDS011;37677;53.254;6.594;2022-09-25T08:14:44;7.32;;;2.17;;
51594;SDS011;37677;53.254;6.594;2022-09-25T08:21:04;8.70;;;1.80;;
51594;SDS011;37677;53.254;6.594;2022-09-25T08:23:31;7.88;;;2.30;;
51594;SDS011;37677;53.254;6.594;2022-09-25T08:25:58;11.52;;;2.42;;
51594;SDS011;37677;53.254;6.594;2022-09-25T08:28:26;7.72;;;1.73;;
51594;SDS011;37677;53.254;6.594;2022-09-25T08:30:53;7.25;;;2.13;;
51594;SDS011;37677;53.254;6.594;2022-09-25T08:33:19;7.20;;;1.95;;
51594;SDS011;37677;53.254;6.594;2022-09-25T08:35:53;7.05;;;1.67;;
51594;SDS011;37677;53.254;6.594;2022-09-25T08:38:20;8.57;;;1.50;;
51594;SDS011;37677;53.254;6.594;2022-09-25T08:43:39;2.85;;;1.15;;
51594;SDS011;37677;53.254;6.594;2022-09-25T08:46:22;7.72;;;1.70;;
51594;SDS011;37677;53.254;6.594;2022-09-25T08:49:17;6.53;;;1.40;;
51594;SDS011;37677;53.254;6.594;2022-09-25T08:51:47;6.60;;;1.83;;
51594;SDS011;37677;53.254;6.594;2022-09-25T08:54:25;3.58;;;1.67;;
51594;SDS011;37677;53.254;6.594;2022-09-25T08:56:53;3.38;;;1.30;;
51594;SDS011;37677;53.254;6.594;2022-09-25T09:02:14;7.53;;;1.45;;
51594;SDS011;37677;53.254;6.594;2022-09-25T09:04:45;7.28;;;1.83;;
51594;SDS011;37677;53.254;6.594;2022-09-25T09:09:50;5.50;;;1.42;;
51594;SDS011;37677;53.254;6.594;2022-09-25T09:12:24;6.22;;;1.48;;
51594;SDS011;37677;53.254;6.594;2022-09-25T09:15:04;3.97;;;1.20;;
51594;SDS011;37677;53.254;6.594;2022-09-25T09:17:40;4.10;;;1.35;;
51594;SDS011;37677;53.254;6.594;2022-09-25T09:20:15;3.97;;;1.38;;
51594;SDS011;37677;53.254;6.594;2022-09-25T09:22:50;6.93;;;1.42;;
51594;SDS011;37677;53.254;6.594;2022-09-25T09:25:25;6.85;;;1.98;;
51594;SDS011;37677;53.254;6.594;2022-09-25T09:28:10;10.45;;;2.25;;
51594;SDS011;37677;53.254;6.594;2022-09-25T09:36:45;5.13;;;1.85;;
51594;SDS011;37677;53.254;6.594;2022-09-25T09:39:36;5.85;;;1.60;;
51594;SDS011;37677;53.254;6.594;2022-09-25T09:42:10;7.05;;;1.40;;
51594;SDS011;37677;53.254;6.594;2022-09-25T09:47:28;10.80;;;2.00;;
51594;SDS011;37677;53.254;6.594;2022-09-25T09:53:03;5.78;;;1.67;;
51594;SDS011;37677;53.254;6.594;2022-09-25T09:55:42;7.40;;;1.63;;
51594;SDS011;37677;53.254;6.594;2022-09-25T09:58:54;6.72;;;1.92;;
51594;SDS011;37677;53.254;6.594;2022-09-25T10:01:11;9.80;;;2.42;;
51594;SDS011;37677;53.254;6.594;2022-09-25T10:03:38;6.18;;;1.40;;
51594;SDS011;37677;53.254;6.594;2022-09-25T10:06:07;16.42;;;2.85;;
51594;SDS011;37677;53.254;6.594;2022-09-25T10:08:36;9.27;;;1.80;;
51594;SDS011;37677;53.254;6.594;2022-09-25T10:11:05;4.82;;;1.20;;
51594;SDS011;37677;53.254;6.594;2022-09-25T10:13:42;7.32;;;1.90;;
51594;SDS011;37677;53.254;6.594;2022-09-25T10:16:13;7.15;;;1.75;;
51594;SDS011;37677;53.254;6.594;2022-09-25T10:21:22;7.85;;;1.60;;
51594;SDS011;37677;53.254;6.594;2022-09-25T10:23:55;6.28;;;1.50;;
51594;SDS011;37677;53.254;6.594;2022-09-25T10:26:30;12.40;;;1.70;;
51594;SDS011;37677;53.254;6.594;2022-09-25T10:29:09;4.90;;;1.45;;
51594;SDS011;37677;53.254;6.594;2022-09-25T10:31:58;4.32;;;1.58;;
51594;SDS011;37677;53.254;6.594;2022-09-25T10:34:28;5.57;;;1.55;;
51594;SDS011;37677;53.254;6.594;2022-09-25T10:36:58;5.13;;;1.67;;
51594;SDS011;37677;53.254;6.594;2022-09-25T10:39:58;9.00;;;1.55;;
51594;SDS011;37677;53.254;6.594;2022-09-25T10:42:40;3.35;;;1.05;;
51594;SDS011;37677;53.254;6.594;2022-09-25T10:47:52;3.25;;;1.13;;
51594;SDS011;37677;53.254;6.594;2022-09-25T10:50:38;5.50;;;1.20;;
51594;SDS011;37677;53.254;6.594;2022-09-25T10:53:04;4.25;;;1.30;;
51594;SDS011;37677;53.254;6.594;2022-09-25T10:55:36;3.75;;;1.95;;
51594;SDS011;37677;53.254;6.594;2022-09-25T10:58:22;3.22;;;1.20;;
51594;SDS011;37677;53.254;6.594;2022-09-25T11:01:00;1.92;;;0.90;;
51594;SDS011;37677;53.254;6.594;2022-09-25T11:04:02;1.50;;;0.90;;
51594;SDS011;37677;53.254;6.594;2022-09-25T11:06:26;2.00;;;0.82;;
51594;SDS011;37677;53.254;6.594;2022-09-25T11:11:47;3.08;;;1.00;;
51594;SDS011;37677;53.254;6.594;2022-09-25T11:14:37;8.85;;;1.30;;
51594;SDS011;37677;53.254;6.594;2022-09-25T11:17:27;3.47;;;1.38;;
51594;SDS011;37677;53.254;6.594;2022-09-25T11:26:24;3.47;;;0.90;;
51594;SDS011;37677;53.254;6.594;2022-09-25T11:29:01;3.17;;;1.00;;
51594;SDS011;37677;53.254;6.594;2022-09-25T11:31:51;4.50;;;1.10;;
51594;SDS011;37677;53.254;6.594;2022-09-25T11:43:05;3.05;;;1.10;;
51594;SDS011;37677;53.254;6.594;2022-09-25T11:45:46;6.32;;;1.30;;
51594;SDS011;37677;53.254;6.594;2022-09-25T11:48:24;4.45;;;0.90;;
51594;SDS011;37677;53.254;6.594;2022-09-25T11:57:10;6.60;;;1.60;;
51594;SDS011;37677;53.254;6.594;2022-09-25T12:03:09;5.78;;;1.33;;
51594;SDS011;37677;53.254;6.594;2022-09-25T12:08:51;6.40;;;1.58;;
51594;SDS011;37677;53.254;6.594;2022-09-25T12:14:26;6.85;;;1.50;;
51594;SDS011;37677;53.254;6.594;2022-09-25T12:19:55;5.82;;;1.50;;
51594;SDS011;37677;53.254;6.594;2022-09-25T12:28:49;4.93;;;1.57;;
51594;SDS011;37677;53.254;6.594;2022-09-25T12:31:39;5.53;;;1.60;;
51594;SDS011;37677;53.254;6.594;2022-09-25T12:37:19;3.05;;;1.10;;
51594;SDS011;37677;53.254;6.594;2022-09-25T12:49:20;4.72;;;1.02;;
51594;SDS011;37677;53.254;6.594;2022-09-25T12:52:42;6.25;;;1.50;;
51594;SDS011;37677;53.254;6.594;2022-09-25T12:55:27;3.83;;;1.00;;
51594;SDS011;37677;53.254;6.594;2022-09-25T12:58:10;3.15;;;1.00;;
51594;SDS011;37677;53.254;6.594;2022-09-25T13:01:02;6.18;;;1.55;;
51594;SDS011;37677;53.254;6.594;2022-09-25T13:07:16;5.30;;;1.23;;
51594;SDS011;37677;53.254;6.594;2022-09-25T13:10:19;5.05;;;1.00;;
51594;SDS011;37677;53.254;6.594;2022-09-25T13:12:53;6.05;;;1.45;;
51594;SDS011;37677;53.254;6.594;2022-09-25T13:15:27;6.88;;;1.50;;
51594;SDS011;37677;53.254;6.594;2022-09-25T13:18:03;5.90;;;1.30;;
51594;SDS011;37677;53.254;6.594;2022-09-25T13:23:30;7.00;;;1.50;;
51594;SDS011;37677;53.254;6.594;2022-09-25T13:47:52;4.50;;;1.20;;
51594;SDS011;37677;53.254;6.594;2022-09-25T13:50:29;3.00;;;1.00;;
51594;SDS011;37677;53.254;6.594;2022-09-25T14:04:18;5.30;;;1.42;;
51594;SDS011;37677;53.254;6.594;2022-09-25T14:06:52;8.90;;;1.55;;
51594;SDS011;37677;53.254;6.594;2022-09-25T14:09:26;5.03;;;1.20;;
51594;SDS011;37677;53.254;6.594;2022-09-25T14:12:00;5.47;;;1.45;;
51594;SDS011;37677;53.254;6.594;2022-09-25T14:14:40;5.28;;;1.35;;
51594;SDS011;37677;53.254;6.594;2022-09-25T14:17:13;3.92;;;1.27;;
51594;SDS011;37677;53.254;6.594;2022-09-25T14:19:41;4.18;;;1.30;;
51594;SDS011;37677;53.254;6.594;2022-09-25T14:22:18;7.10;;;1.60;;
51594;SDS011;37677;53.254;6.594;2022-09-25T14:25:20;5.18;;;1.08;;
51594;SDS011;37677;53.254;6.594;2022-09-25T14:28:41;4.80;;;1.35;;
51594;SDS011;37677;53.254;6.594;2022-09-25T14:31:04;6.18;;;1.17;;
51594;SDS011;37677;53.254;6.594;2022-09-25T14:39:26;3.90;;;1.25;;
51594;SDS011;37677;53.254;6.594;2022-09-25T14:47:54;6.95;;;1.20;;
51594;SDS011;37677;53.254;6.594;2022-09-25T14:50:28;7.28;;;1.77;;
51594;SDS011;37677;53.254;6.594;2022-09-25T14:53:04;7.03;;;1.80;;
51594;SDS011;37677;53.254;6.594;2022-09-25T14:55:40;8.82;;;1.63;;
51594;SDS011;37677;53.254;6.594;2022-09-25T14:58:12;8.10;;;2.22;;
51594;SDS011;37677;53.254;6.594;2022-09-25T15:00:43;6.57;;;1.30;;
51594;SDS011;37677;53.254;6.594;2022-09-25T15:03:11;4.00;;;1.50;;
51594;SDS011;37677;53.254;6.594;2022-09-25T15:05:44;4.50;;;1.45;;
51594;SDS011;37677;53.254;6.594;2022-09-25T15:08:18;3.30;;;1.23;;
51594;SDS011;37677;53.254;6.594;2022-09-25T15:10:46;8.73;;;2.07;;
51594;SDS011;37677;53.254;6.594;2022-09-25T15:13:14;5.25;;;1.33;;
51594;SDS011;37677;53.254;6.594;2022-09-25T15:15:42;6.03;;;1.65;;
51594;SDS011;37677;53.254;6.594;2022-09-25T15:18:30;5.97;;;1.25;;
51594;SDS011;37677;53.254;6.594;2022-09-25T15:20:57;6.95;;;1.23;;
51594;SDS011;37677;53.254;6.594;2022-09-25T15:23:25;4.35;;;1.05;;
51594;SDS011;37677;53.254;6.594;2022-09-25T15:25:52;7.80;;;1.45;;
51594;SDS011;37677;53.254;6.594;2022-09-25T15:28:20;7.30;;;1.10;;
51594;SDS011;37677;53.254;6.594;2022-09-25T15:30:58;5.93;;;1.17;;
51594;SDS011;37677;53.254;6.594;2022-09-25T15:33:26;4.20;;;1.27;;
51594;SDS011;37677;53.254;6.594;2022-09-25T15:35:57;6.47;;;1.00;;
51594;SDS011;37677;53.254;6.594;2022-09-25T15:38:36;2.72;;;0.95;;
51594;SDS011;37677;53.254;6.594;2022-09-25T15:41:05;4.95;;;1.10;;
51594;SDS011;37677;53.254;6.594;2022-09-25T15:43:32;4.95;;;1.08;;
51594;SDS011;37677;53.254;6.594;2022-09-25T15:48:31;2.97;;;1.10;;
51594;SDS011;37677;53.254;6.594;2022-09-25T15:51:03;3.60;;;1.13;;
51594;SDS011;37677;53.254;6.594;2022-09-25T15:53:44;6.55;;;1.10;;
51594;SDS011;37677;53.254;6.594;2022-09-25T15:56:28;2.65;;;1.02;;
51594;SDS011;37677;53.254;6.594;2022-09-25T15:59:02;3.55;;;1.00;;
51594;SDS011;37677;53.254;6.594;2022-09-25T16:01:40;3.10;;;1.23;;
51594;SDS011;37677;53.254;6.594;2022-09-25T16:04:25;4.38;;;1.05;;
51594;SDS011;37677;53.254;6.594;2022-09-25T16:07:23;1.92;;;0.90;;
51594;SDS011;37677;53.254;6.594;2022-09-25T16:09:55;3.22;;;0.82;;
51594;SDS011;37677;53.254;6.594;2022-09-25T16:12:32;4.35;;;0.98;;
51594;SDS011;37677;53.254;6.594;2022-09-25T16:15:41;4.18;;;1.05;;
51594;SDS011;37677;53.254;6.594;2022-09-25T16:21:08;4.28;;;1.10;;
51594;SDS011;37677;53.254;6.594;2022-09-25T16:23:37;3.70;;;1.20;;
51594;SDS011;37677;53.254;6.594;2022-09-25T16:26:08;3.92;;;1.30;;
51594;SDS011;37677;53.254;6.594;2022-09-25T16:29:32;3.45;;;1.10;;
51594;SDS011;37677;53.254;6.594;2022-09-25T16:31:41;5.35;;;1.25;;
51594;SDS011;37677;53.254;6.594;2022-09-25T16:34:16;3.03;;;1.67;;
51594;SDS011;37677;53.254;6.594;2022-09-25T16:36:42;5.43;;;1.60;;
51594;SDS011;37677;53.254;6.594;2022-09-25T16:41:45;5.13;;;1.58;;
51594;SDS011;37677;53.254;6.594;2022-09-25T16:44:34;3.92;;;1.23;;
51594;SDS011;37677;53.254;6.594;2022-09-25T16:47:04;4.18;;;1.50;;
51594;SDS011;37677;53.254;6.594;2022-09-25T16:49:41;5.88;;;1.40;;
51594;SDS011;37677;53.254;6.594;2022-09-25T16:52:09;3.38;;;1.20;;
51594;SDS011;37677;53.254;6.594;2022-09-25T16:54:53;5.95;;;1.90;;
51594;SDS011;37677;53.254;6.594;2022-09-25T16:57:24;4.78;;;1.58;;
51594;SDS011;37677;53.254;6.594;2022-09-25T16:59:56;6.05;;;2.03;;
51594;SDS011;37677;53.254;6.594;2022-09-25T17:02:29;4.90;;;1.50;;
51594;SDS011;37677;53.254;6.594;2022-09-25T17:05:34;6.28;;;1.40;;
51594;SDS011;37677;53.254;6.594;2022-09-25T17:10:42;3.67;;;1.25;;
51594;SDS011;37677;53.254;6.594;2022-09-25T17:13:08;2.97;;;1.00;;
51594;SDS011;37677;53.254;6.594;2022-09-25T17:15:37;5.32;;;1.33;;
51594;SDS011;37677;53.254;6.594;2022-09-25T17:18:15;5.75;;;1.40;;
51594;SDS011;37677;53.254;6.594;2022-09-25T17:20:42;3.38;;;1.27;;
51594;SDS011;37677;53.254;6.594;2022-09-25T17:23:08;4.15;;;1.60;;
51594;SDS011;37677;53.254;6.594;2022-09-25T17:28:06;5.53;;;1.58;;
51594;SDS011;37677;53.254;6.594;2022-09-25T17:30:33;3.85;;;2.30;;
51594;SDS011;37677;53.254;6.594;2022-09-25T17:32:59;6.85;;;1.67;;
51594;SDS011;37677;53.254;6.594;2022-09-25T17:38:03;7.07;;;2.08;;
51594;SDS011;37677;53.254;6.594;2022-09-25T17:40:29;6.88;;;2.90;;
51594;SDS011;37677;53.254;6.594;2022-09-25T17:42:57;9.95;;;3.17;;
51594;SDS011;37677;53.254;6.594;2022-09-25T17:45:37;6.85;;;2.70;;
51594;SDS011;37677;53.254;6.594;2022-09-25T17:48:15;6.78;;;2.97;;
51594;SDS011;37677;53.254;6.594;2022-09-25T17:53:24;7.97;;;2.97;;
51594;SDS011;37677;53.254;6.594;2022-09-25T17:55:55;4.93;;;2.60;;
51594;SDS011;37677;53.254;6.594;2022-09-25T17:58:22;6.18;;;2.25;;
51594;SDS011;37677;53.254;6.594;2022-09-25T18:00:49;4.85;;;1.90;;
51594;SDS011;37677;53.254;6.594;2022-09-25T18:03:17;5.93;;;1.95;;
51594;SDS011;37677;53.254;6.594;2022-09-25T18:05:43;7.45;;;2.00;;
51594;SDS011;37677;53.254;6.594;2022-09-25T18:08:10;7.55;;;1.92;;
51594;SDS011;37677;53.254;6.594;2022-09-25T18:10:37;5.50;;;2.13;;
51594;SDS011;37677;53.254;6.594;2022-09-25T18:13:04;7.15;;;1.80;;
51594;SDS011;37677;53.254;6.594;2022-09-25T18:15:32;5.70;;;2.42;;
51594;SDS011;37677;53.254;6.594;2022-09-25T18:18:00;6.60;;;5.00;;
51594;SDS011;37677;53.254;6.594;2022-09-25T18:20:26;6.57;;;3.58;;
51594;SDS011;37677;53.254;6.594;2022-09-25T18:23:10;9.98;;;4.15;;
51594;SDS011;37677;53.254;6.594;2022-09-25T18:25:37;6.75;;;2.20;;
51594;SDS011;37677;53.254;6.594;2022-09-25T18:28:05;7.22;;;1.80;;